Time;durP1;ratioP1;P1;durP2;ratioP2;P2;SDS_P1;SDS_P2;PMS_P1;PMS_P2;Temp;Humidity;BMP_temperature;BMP_pressure;BME280_temperature;BME280_humidity;BME280_pressure;Samples;Min_cycle;Max_cycle;Signal;HPM_P1;HPM_P2
2023/03/10 00:00:46;;;;;;;8.83;3.80;;;7.50;99.90;;;;;;5079601;28;20798;-68
2023/03/10 00:03:13;;;;;;;5.60;2.70;;;8.00;99.90;;;;;;5080454;28;20948;-68
2023/03/10 00:05:40;;;;;;;5.67;1.93;;;8.30;99.90;;;;;;5077563;28;20429;-68
2023/03/10 00:08:07;;;;;;;5.00;1.60;;;8.70;99.90;;;;;;5079044;28;20582;-69
2023/03/10 00:10:34;;;;;;;8.57;2.47;;;9.10;99.90;;;;;;5075138;28;20471;-68
2023/03/10 00:13:01;;;;;;;3.70;1.77;;;9.30;99.90;;;;;;5078923;28;20485;-68
2023/03/10 00:15:28;;;;;;;4.60;1.33;;;9.30;99.90;;;;;;5077785;28;20860;-68
2023/03/10 00:17:56;;;;;;;3.43;1.50;;;9.30;99.90;;;;;;5088929;28;20495;-68
2023/03/10 00:20:23;;;;;;;5.00;1.73;;;9.40;99.90;;;;;;5075967;28;20549;-67
2023/03/10 00:22:50;;;;;;;3.63;1.23;;;9.60;99.90;;;;;;5078850;28;20788;-69
2023/03/10 00:25:17;;;;;;;1.20;1.00;;;9.50;99.90;;;;;;5075210;28;20840;-67
2023/03/10 00:27:44;;;;;;;2.33;1.30;;;9.60;99.90;;;;;;5074663;28;20560;-68
2023/03/10 00:30:12;;;;;;;2.47;1.30;;;9.70;99.90;;;;;;5085036;28;20874;-67
2023/03/10 00:32:39;;;;;;;2.57;1.80;;;9.80;99.90;;;;;;5079969;28;21053;-67
2023/03/10 00:35:08;;;;;;;4.07;1.60;;;9.70;99.90;;;;;;5077290;28;20542;-67
2023/03/10 00:37:38;;;;;;;1.20;1.10;;;9.80;99.90;;;;;;5086246;28;20474;-68
2023/03/10 00:40:08;;;;;;;14.10;2.00;;;9.80;99.90;;;;;;5081288;28;20437;-68
2023/03/10 00:42:35;;;;;;;2.10;1.57;;;9.80;99.90;;;;;;5080269;28;20446;-68
2023/03/10 00:45:02;;;;;;;3.93;1.60;;;9.90;99.90;;;;;;5083773;28;20449;-68
2023/03/10 00:47:29;;;;;;;3.20;1.73;;;9.90;99.90;;;;;;5081412;28;20933;-68
2023/03/10 00:49:56;;;;;;;1.40;1.30;;;10.00;99.90;;;;;;5079395;28;21341;-68
2023/03/10 00:52:24;;;;;;;1.23;0.90;;;10.00;99.90;;;;;;5084355;28;21450;-68
2023/03/10 00:54:52;;;;;;;4.80;1.20;;;10.00;99.90;;;;;;5079924;28;20539;-68
2023/03/10 00:57:19;;;;;;;1.70;1.00;;;10.10;99.90;;;;;;5076737;28;20453;-68
2023/03/10 00:59:50;;;;;;;6.20;1.10;;;10.10;99.90;;;;;;5081002;28;20459;-67
2023/03/10 01:02:17;;;;;;;5.23;1.20;;;10.10;99.90;;;;;;5079794;28;20410;-68
2023/03/10 01:04:47;;;;;;;1.40;1.30;;;10.20;99.90;;;;;;5088549;28;20533;-68
2023/03/10 01:07:14;;;;;;;2.33;1.33;;;10.20;99.90;;;;;;5083413;28;20510;-68
2023/03/10 01:09:42;;;;;;;1.70;1.10;;;10.20;99.90;;;;;;5082825;28;20462;-68
2023/03/10 01:12:09;;;;;;;1.20;0.83;;;10.20;99.90;;;;;;5080761;28;20572;-68
2023/03/10 01:14:36;;;;;;;1.60;1.33;;;10.20;99.90;;;;;;5077483;28;20463;-68
2023/03/10 01:17:04;;;;;;;1.83;1.40;;;10.20;99.90;;;;;;5075669;28;20493;-68
2023/03/10 01:19:31;;;;;;;1.20;0.97;;;10.30;99.90;;;;;;5079148;28;20488;-68
2023/03/10 01:21:58;;;;;;;1.00;0.70;;;10.30;99.90;;;;;;5081619;28;20461;-68
2023/03/10 01:24:25;;;;;;;2.03;1.20;;;10.30;99.90;;;;;;5077451;28;20433;-68
2023/03/10 01:26:53;;;;;;;1.10;1.00;;;10.30;99.90;;;;;;5079108;28;20464;-67
2023/03/10 01:29:20;;;;;;;1.60;1.10;;;10.20;99.90;;;;;;5075008;28;20468;-67
2023/03/10 01:31:47;;;;;;;1.37;1.27;;;10.30;99.90;;;;;;5079588;28;20893;-68
2023/03/10 01:34:14;;;;;;;1.20;1.07;;;10.20;99.90;;;;;;5076669;28;20458;-67
2023/03/10 01:36:42;;;;;;;1.80;1.60;;;10.20;99.90;;;;;;5078867;28;20462;-67
2023/03/10 01:39:09;;;;;;;4.80;1.30;;;10.20;99.90;;;;;;5077831;28;20421;-66
2023/03/10 01:41:39;;;;;;;1.83;1.70;;;10.20;99.90;;;;;;5076821;28;20541;-67
2023/03/10 01:44:15;;;;;;;1.43;1.30;;;10.20;99.90;;;;;;5098513;28;20483;-67
2023/03/10 01:46:48;;;;;;;2.30;1.50;;;10.20;99.90;;;;;;5083554;28;20551;-67
2023/03/10 01:49:26;;;;;;;1.10;1.00;;;10.10;99.90;;;;;;5075868;28;20454;-67
2023/03/10 01:51:58;;;;;;;1.70;1.40;;;10.10;99.90;;;;;;5108998;28;20419;-67
2023/03/10 01:54:28;;;;;;;2.73;1.40;;;10.10;99.90;;;;;;5098406;28;20537;-67
2023/03/10 01:56:56;;;;;;;2.93;1.30;;;10.10;99.90;;;;;;5077482;28;20568;-67
2023/03/10 01:59:27;;;;;;;1.63;1.30;;;10.10;99.90;;;;;;5077908;28;21024;-67
2023/03/10 02:01:55;;;;;;;1.77;1.63;;;10.10;99.90;;;;;;5075053;28;20478;-67
2023/03/10 02:04:27;;;;;;;3.00;2.13;;;10.10;99.90;;;;;;5076464;28;20956;-67
2023/03/10 02:06:56;;;;;;;1.60;1.33;;;10.10;99.90;;;;;;5079298;28;20479;-68
2023/03/10 02:09:25;;;;;;;2.83;2.10;;;10.00;99.90;;;;;;5076776;28;20429;-68
2023/03/10 02:11:53;;;;;;;2.63;2.43;;;10.00;99.90;;;;;;5079384;28;20861;-67
2023/03/10 02:14:20;;;;;;;2.77;2.37;;;10.00;99.90;;;;;;5077898;28;20447;-68
2023/03/10 02:16:49;;;;;;;2.83;1.50;;;9.90;99.90;;;;;;5078849;28;20477;-68
2023/03/10 02:19:37;;;;;;;2.03;1.87;;;10.00;99.90;;;;;;5080209;28;20437;-67
2023/03/10 02:22:07;;;;;;;4.20;3.57;;;10.00;99.90;;;;;;5077921;28;20453;-67
2023/03/10 02:24:42;;;;;;;2.33;1.90;;;10.00;99.90;;;;;;5083252;28;20453;-68
2023/03/10 02:27:15;;;;;;;2.80;2.20;;;10.00;99.90;;;;;;5087154;28;20470;-67
2023/03/10 02:29:46;;;;;;;2.80;2.17;;;10.10;99.90;;;;;;5097136;28;20424;-67
2023/03/10 02:32:14;;;;;;;1.53;1.30;;;10.10;99.90;;;;;;5084014;28;20982;-67
2023/03/10 02:34:41;;;;;;;1.53;1.43;;;10.00;99.90;;;;;;5082003;28;20457;-67
2023/03/10 02:37:18;;;;;;;1.90;1.57;;;10.00;99.90;;;;;;5076783;28;20469;-67
2023/03/10 02:39:45;;;;;;;4.93;1.60;;;10.00;99.90;;;;;;5078688;28;20424;-67
2023/03/10 02:42:14;;;;;;;1.40;1.10;;;10.10;99.90;;;;;;5083468;28;20503;-67
2023/03/10 02:44:41;;;;;;;2.13;1.40;;;10.10;99.90;;;;;;5085721;28;20524;-68
2023/03/10 02:47:08;;;;;;;1.30;1.03;;;10.00;99.90;;;;;;5078631;28;20576;-67
2023/03/10 02:49:37;;;;;;;1.40;1.30;;;10.00;99.90;;;;;;5081464;28;20953;-67
2023/03/10 02:52:08;;;;;;;3.87;2.53;;;9.90;99.90;;;;;;5085172;28;20857;-67
2023/03/10 02:54:35;;;;;;;3.00;2.03;;;10.00;99.90;;;;;;5076635;28;20532;-68
2023/03/10 02:57:02;;;;;;;1.63;1.40;;;10.00;99.90;;;;;;5078456;28;20565;-68
2023/03/10 02:59:30;;;;;;;2.13;1.60;;;10.00;99.90;;;;;;5084872;28;20486;-68
2023/03/10 03:01:57;;;;;;;6.77;2.67;;;10.00;99.90;;;;;;5078109;28;20508;-68
2023/03/10 03:04:24;;;;;;;3.97;2.00;;;10.00;99.90;;;;;;5083078;28;20533;-68
2023/03/10 03:06:51;;;;;;;1.90;1.70;;;9.90;99.90;;;;;;5081060;28;21023;-68
2023/03/10 03:09:18;;;;;;;3.07;1.67;;;10.00;99.90;;;;;;5082551;28;20465;-68
2023/03/10 03:11:45;;;;;;;2.63;1.57;;;10.00;99.90;;;;;;5082314;28;20907;-68
2023/03/10 03:14:12;;;;;;;2.60;2.03;;;10.10;99.90;;;;;;5078700;28;20538;-68
2023/03/10 03:16:40;;;;;;;2.90;1.90;;;10.00;99.90;;;;;;5083552;28;20444;-68
2023/03/10 03:19:07;;;;;;;1.63;1.53;;;10.00;99.90;;;;;;5086986;28;20519;-69
2023/03/10 03:21:34;;;;;;;2.13;1.70;;;10.00;99.90;;;;;;5087441;28;20461;-68
2023/03/10 03:24:01;;;;;;;4.27;2.63;;;10.00;99.90;;;;;;5089038;28;20454;-68
2023/03/10 03:26:27;;;;;;;2.63;2.23;;;10.00;99.90;;;;;;5076513;28;20485;-68
2023/03/10 03:28:55;;;;;;;2.37;2.17;;;10.10;99.90;;;;;;5076038;28;20459;-68
2023/03/10 03:31:25;;;;;;;6.67;2.90;;;10.00;99.90;;;;;;5080805;28;21251;-68
2023/03/10 03:33:53;;;;;;;1.57;1.47;;;10.10;99.90;;;;;;5081606;28;20504;-68
2023/03/10 03:36:20;;;;;;;6.73;4.33;;;10.00;99.90;;;;;;5073419;28;20504;-68
2023/03/10 03:38:47;;;;;;;3.97;2.40;;;10.00;99.90;;;;;;5078705;28;20465;-69
2023/03/10 03:41:14;;;;;;;6.47;2.37;;;10.10;99.90;;;;;;5078526;28;20501;-68
2023/03/10 03:43:41;;;;;;;4.70;2.80;;;10.10;99.90;;;;;;5088103;28;20490;-67
2023/03/10 03:46:08;;;;;;;3.37;2.70;;;10.10;99.90;;;;;;5082673;28;20826;-68
2023/03/10 03:48:35;;;;;;;4.90;2.40;;;10.20;99.90;;;;;;5084190;28;20512;-68
2023/03/10 03:51:03;;;;;;;3.13;2.07;;;10.10;99.90;;;;;;5079187;28;20457;-68
2023/03/10 03:53:32;;;;;;;3.87;2.57;;;10.20;99.90;;;;;;5085711;28;20593;-67
2023/03/10 03:55:59;;;;;;;3.90;2.47;;;10.20;99.90;;;;;;5077688;28;20551;-68
2023/03/10 03:58:26;;;;;;;5.17;2.80;;;10.30;99.90;;;;;;5082424;28;20816;-68
2023/03/10 04:00:53;;;;;;;5.43;2.93;;;10.30;99.90;;;;;;5079269;28;20976;-67
2023/03/10 04:03:20;;;;;;;4.60;2.30;;;10.30;99.90;;;;;;5081541;28;20540;-67
2023/03/10 04:05:47;;;;;;;3.50;2.53;;;10.30;99.90;;;;;;5079102;28;20451;-68
2023/03/10 04:08:17;;;;;;;4.53;3.30;;;10.40;99.90;;;;;;5086990;28;20804;-68
2023/03/10 04:10:50;;;;;;;4.73;2.97;;;10.30;99.90;;;;;;5083719;28;20474;-68
2023/03/10 04:13:17;;;;;;;3.87;2.37;;;10.40;99.90;;;;;;5084855;28;20478;-69
2023/03/10 04:15:44;;;;;;;4.03;3.40;;;10.40;99.90;;;;;;5086626;28;20461;-68
2023/03/10 04:18:11;;;;;;;3.27;2.37;;;10.40;99.90;;;;;;5093916;28;20750;-68
2023/03/10 04:20:38;;;;;;;3.10;2.23;;;10.40;99.90;;;;;;5090698;28;20433;-69
2023/03/10 04:23:05;;;;;;;2.30;2.10;;;10.40;99.90;;;;;;5080372;28;20955;-69
2023/03/10 04:25:35;;;;;;;2.30;1.40;;;10.40;99.90;;;;;;5073616;28;20499;-67
2023/03/10 04:28:02;;;;;;;2.07;1.80;;;10.40;99.90;;;;;;5076623;28;20470;-67
2023/03/10 04:30:29;;;;;;;5.87;3.07;;;10.40;99.90;;;;;;5081348;28;20458;-67
2023/03/10 04:32:58;;;;;;;3.60;2.30;;;10.40;99.90;;;;;;5097421;28;20469;-68
2023/03/10 04:35:28;;;;;;;3.17;2.80;;;10.30;99.90;;;;;;5081645;28;20454;-67
2023/03/10 04:37:55;;;;;;;7.47;3.40;;;10.30;99.90;;;;;;5088483;28;20522;-67
2023/03/10 04:40:23;;;;;;;2.67;2.47;;;10.30;99.90;;;;;;5088119;28;20533;-68
2023/03/10 04:42:51;;;;;;;1.83;1.47;;;10.30;99.90;;;;;;5080484;28;20450;-68
2023/03/10 04:45:18;;;;;;;3.00;1.90;;;10.20;99.90;;;;;;5081574;28;20529;-67
2023/03/10 04:47:45;;;;;;;4.70;2.10;;;10.30;99.90;;;;;;5078357;28;20474;-67
2023/03/10 04:50:16;;;;;;;3.23;2.00;;;10.30;99.90;;;;;;5090147;28;20541;-67
2023/03/10 04:52:43;;;;;;;2.17;1.63;;;10.30;99.90;;;;;;5087537;28;20466;-67
2023/03/10 04:55:10;;;;;;;2.87;1.73;;;10.40;99.90;;;;;;5081818;28;20484;-68
2023/03/10 04:57:37;;;;;;;3.80;2.53;;;10.30;99.90;;;;;;5080825;28;20475;-67
2023/03/10 05:00:08;;;;;;;3.00;2.10;;;10.40;99.90;;;;;;5086577;28;20450;-67
2023/03/10 05:02:36;;;;;;;4.33;2.30;;;10.30;99.90;;;;;;5074994;28;20462;-68
2023/03/10 05:05:03;;;;;;;5.83;2.90;;;10.30;99.90;;;;;;5076395;28;20466;-68
2023/03/10 05:07:30;;;;;;;4.60;2.60;;;10.40;99.90;;;;;;5080010;28;20444;-68
2023/03/10 05:09:58;;;;;;;2.70;2.20;;;10.30;99.90;;;;;;5095001;28;20446;-68
2023/03/10 05:12:25;;;;;;;4.17;2.60;;;10.30;99.90;;;;;;5102888;28;20537;-68
2023/03/10 05:14:51;;;;;;;3.13;2.83;;;10.40;99.90;;;;;;5108411;28;20438;-68
2023/03/10 05:17:20;;;;;;;5.40;2.60;;;10.30;99.90;;;;;;5090171;28;20485;-68
2023/03/10 05:19:47;;;;;;;1.90;1.40;;;10.30;99.90;;;;;;5081319;28;20491;-68
2023/03/10 05:22:14;;;;;;;3.03;1.83;;;10.30;99.90;;;;;;5042766;28;20454;-68
2023/03/10 05:24:41;;;;;;;4.13;1.87;;;10.30;99.90;;;;;;5074320;28;20455;-68
2023/03/10 05:27:09;;;;;;;5.33;1.90;;;10.30;99.90;;;;;;5084081;28;20498;-68
2023/03/10 05:29:38;;;;;;;3.43;1.50;;;10.40;99.90;;;;;;5080304;28;20470;-68
2023/03/10 05:32:06;;;;;;;3.67;1.90;;;10.40;99.90;;;;;;5080946;28;20473;-68
2023/03/10 05:34:34;;;;;;;2.97;1.87;;;10.30;99.90;;;;;;5086398;28;20617;-68
2023/03/10 05:37:01;;;;;;;6.67;2.20;;;10.30;99.90;;;;;;5076584;28;20514;-68
2023/03/10 05:39:28;;;;;;;2.57;1.93;;;10.30;99.90;;;;;;5079173;28;20465;-68
2023/03/10 05:41:56;;;;;;;2.80;2.10;;;10.30;99.90;;;;;;5080921;28;20460;-68
2023/03/10 05:44:23;;;;;;;2.53;1.63;;;10.30;99.90;;;;;;5079926;28;20436;-68
2023/03/10 05:46:50;;;;;;;1.80;1.50;;;10.20;99.90;;;;;;5087504;28;20436;-68
2023/03/10 05:49:17;;;;;;;2.40;1.63;;;10.10;99.90;;;;;;5088331;28;20529;-68
2023/03/10 05:51:45;;;;;;;2.50;1.53;;;10.20;99.90;;;;;;5078868;28;20534;-68
2023/03/10 05:54:12;;;;;;;4.33;2.03;;;10.20;99.90;;;;;;5088255;28;20452;-67
2023/03/10 05:56:39;;;;;;;2.10;1.83;;;10.20;99.90;;;;;;5093115;28;20988;-68
2023/03/10 05:59:06;;;;;;;3.40;2.20;;;10.20;99.90;;;;;;5087723;28;20510;-68
2023/03/10 06:01:34;;;;;;;2.60;1.43;;;10.20;99.90;;;;;;5081538;28;20432;-67
2023/03/10 06:04:01;;;;;;;2.43;1.93;;;10.20;99.90;;;;;;5077228;28;20818;-67
2023/03/10 06:06:27;;;;;;;2.13;1.67;;;10.20;99.90;;;;;;5072893;28;20445;-68
2023/03/10 06:08:57;;;;;;;3.27;1.97;;;10.20;99.90;;;;;;5088123;28;20457;-68
2023/03/10 06:11:24;;;;;;;1.93;1.73;;;10.20;99.90;;;;;;5082675;28;20471;-67
2023/03/10 06:13:50;;;;;;;2.43;2.00;;;10.20;99.90;;;;;;5081729;28;20468;-67
2023/03/10 06:16:17;;;;;;;1.83;1.70;;;10.30;99.90;;;;;;5084158;28;20481;-67
2023/03/10 06:18:44;;;;;;;1.70;1.03;;;10.30;99.90;;;;;;5072314;28;20450;-67
2023/03/10 06:21:15;;;;;;;5.20;1.70;;;10.20;99.90;;;;;;5073417;28;20464;-67
2023/03/10 06:23:42;;;;;;;2.70;1.80;;;10.10;99.90;;;;;;5091655;28;20447;-68
2023/03/10 06:26:13;;;;;;;6.73;1.90;;;10.10;99.90;;;;;;5074566;28;20501;-67
2023/03/10 06:28:42;;;;;;;7.47;1.70;;;10.20;99.90;;;;;;5087867;28;20515;-67
2023/03/10 06:31:13;;;;;;;3.93;1.83;;;10.20;99.90;;;;;;5084549;28;20504;-67
2023/03/10 06:33:40;;;;;;;4.13;2.17;;;10.30;99.90;;;;;;5086704;28;20980;-67
2023/03/10 06:36:09;;;;;;;2.13;1.90;;;10.30;99.90;;;;;;5077466;28;20476;-67
2023/03/10 06:38:36;;;;;;;2.80;1.83;;;10.40;99.90;;;;;;5088097;28;20465;-67
2023/03/10 06:41:04;;;;;;;3.33;1.20;;;10.50;99.90;;;;;;5082777;28;20456;-67
2023/03/10 06:43:32;;;;;;;1.83;1.50;;;10.50;99.90;;;;;;5078638;28;20564;-68
2023/03/10 06:46:02;;;;;;;4.40;1.30;;;10.60;99.90;;;;;;5087473;28;20424;-67
2023/03/10 06:48:29;;;;;;;2.37;2.17;;;10.40;99.90;;;;;;5084893;28;20412;-68
2023/03/10 06:50:56;;;;;;;2.10;1.50;;;10.50;99.90;;;;;;5091666;28;20468;-68
2023/03/10 06:53:26;;;;;;;2.07;1.30;;;10.60;99.90;;;;;;5086936;28;20483;-67
2023/03/10 06:55:58;;;;;;;7.93;2.27;;;10.60;99.90;;;;;;5088702;28;20552;-68
2023/03/10 06:58:25;;;;;;;10.63;1.37;;;10.70;99.90;;;;;;5088474;28;20529;-68
2023/03/10 07:00:54;;;;;;;2.03;1.60;;;10.70;99.90;;;;;;5081532;28;20454;-68
2023/03/10 07:03:21;;;;;;;1.37;0.93;;;10.60;99.90;;;;;;5084572;28;20511;-68
2023/03/10 07:05:48;;;;;;;2.67;1.47;;;10.70;99.90;;;;;;5094828;28;20478;-68
2023/03/10 07:08:15;;;;;;;1.77;1.13;;;10.70;99.90;;;;;;5089557;28;20492;-68
2023/03/10 07:10:42;;;;;;;12.20;2.00;;;10.80;99.90;;;;;;5097595;28;20698;-68
2023/03/10 07:13:12;;;;;;;1.07;0.83;;;11.00;99.90;;;;;;5086530;28;20478;-67
2023/03/10 07:15:39;;;;;;;6.20;1.90;;;11.00;99.90;;;;;;5084307;28;20482;-67
2023/03/10 07:18:08;;;;;;;2.37;2.17;;;11.10;99.90;;;;;;5087068;28;21102;-67
2023/03/10 07:20:35;;;;;;;1.40;1.30;;;11.10;99.90;;;;;;5093753;28;20503;-68
2023/03/10 07:23:05;;;;;;;4.10;1.93;;;11.00;99.90;;;;;;5090850;28;20483;-68
2023/03/10 07:25:35;;;;;;;4.40;1.07;;;11.00;99.90;;;;;;5086146;28;20469;-67
2023/03/10 07:28:02;;;;;;;1.73;1.40;;;11.10;99.90;;;;;;5077048;28;20563;-68
2023/03/10 07:30:29;;;;;;;3.67;1.50;;;11.00;99.90;;;;;;5087331;28;20441;-67
2023/03/10 07:32:56;;;;;;;2.73;1.27;;;11.00;99.90;;;;;;5086918;28;20445;-67
2023/03/10 07:35:24;;;;;;;2.73;1.80;;;11.00;99.90;;;;;;5098929;28;20548;-67
2023/03/10 07:37:51;;;;;;;1.83;1.20;;;11.00;99.90;;;;;;5077663;28;20624;-68
2023/03/10 07:40:21;;;;;;;1.67;1.57;;;11.00;99.90;;;;;;5085040;28;20495;-67
2023/03/10 07:42:48;;;;;;;5.20;2.67;;;11.00;99.90;;;;;;5083039;28;20950;-68
2023/03/10 07:45:15;;;;;;;1.30;1.10;;;11.00;99.90;;;;;;5090961;28;20511;-68
2023/03/10 07:47:42;;;;;;;2.93;2.20;;;11.00;99.90;;;;;;5093602;28;20557;-67
2023/03/10 07:50:10;;;;;;;1.43;1.10;;;11.10;99.90;;;;;;5096335;28;20475;-68
2023/03/10 07:52:39;;;;;;;4.03;1.73;;;11.10;99.90;;;;;;5091034;28;20465;-68
2023/03/10 07:55:07;;;;;;;5.93;1.50;;;11.10;99.90;;;;;;5085400;28;20539;-68
2023/03/10 07:57:33;;;;;;;3.37;1.97;;;11.20;99.90;;;;;;5079048;28;20474;-67
2023/03/10 08:00:00;;;;;;;2.63;1.47;;;11.30;99.90;;;;;;5089060;28;20570;-68
2023/03/10 08:02:27;;;;;;;5.97;3.07;;;11.30;99.90;;;;;;5086171;28;20466;-67
2023/03/10 08:04:55;;;;;;;3.57;1.20;;;11.40;99.90;;;;;;5082691;28;20491;-67
2023/03/10 08:07:21;;;;;;;3.53;1.77;;;11.40;99.90;;;;;;5082874;28;20522;-67
2023/03/10 08:09:53;;;;;;;3.40;1.40;;;11.40;99.90;;;;;;5083178;28;20516;-67
2023/03/10 08:12:21;;;;;;;5.03;2.67;;;11.50;99.90;;;;;;5085513;28;20528;-67
2023/03/10 08:14:49;;;;;;;2.23;1.87;;;11.60;99.90;;;;;;5094748;28;20449;-67
2023/03/10 08:17:17;;;;;;;2.53;1.40;;;11.60;99.90;;;;;;5078279;28;20534;-67
2023/03/10 08:19:44;;;;;;;2.80;2.07;;;11.50;99.90;;;;;;5078873;28;20463;-67
2023/03/10 08:22:11;;;;;;;2.53;2.23;;;11.50;99.90;;;;;;5085204;28;20457;-67
2023/03/10 08:24:38;;;;;;;1.47;1.37;;;11.50;99.90;;;;;;5086147;28;21055;-67
2023/03/10 08:27:06;;;;;;;4.10;1.90;;;11.40;99.90;;;;;;5081374;28;20972;-68
2023/03/10 08:29:33;;;;;;;13.03;1.80;;;11.30;99.90;;;;;;5081475;28;20852;-67
2023/03/10 08:32:00;;;;;;;1.97;1.63;;;11.10;99.90;;;;;;5085379;28;20540;-67
2023/03/10 08:34:32;;;;;;;3.10;1.40;;;11.10;99.90;;;;;;5085637;28;20487;-67
2023/03/10 08:36:59;;;;;;;7.83;2.50;;;11.10;99.90;;;;;;5079353;28;20465;-68
2023/03/10 08:39:28;;;;;;;4.70;2.27;;;11.10;99.90;;;;;;5093719;28;20452;-67
2023/03/10 08:41:55;;;;;;;1.97;1.60;;;11.10;99.90;;;;;;5072855;28;20980;-67
2023/03/10 08:44:23;;;;;;;1.90;1.67;;;11.10;99.90;;;;;;5092684;28;20439;-68
2023/03/10 08:46:50;;;;;;;1.90;1.57;;;10.90;99.90;;;;;;5081325;28;20469;-68
2023/03/10 08:49:20;;;;;;;3.20;1.30;;;10.80;99.90;;;;;;5090816;28;20457;-67
2023/03/10 08:51:47;;;;;;;3.20;1.30;;;10.80;99.90;;;;;;5079618;28;20450;-67
2023/03/10 08:54:17;;;;;;;15.13;4.70;;;10.70;99.90;;;;;;5079153;28;20544;-67
2023/03/10 08:56:44;;;;;;;4.80;2.00;;;10.70;99.90;;;;;;5076540;28;20906;-68
2023/03/10 08:59:11;;;;;;;5.47;2.07;;;10.70;99.90;;;;;;5076942;28;20526;-67
2023/03/10 09:01:40;;;;;;;1.37;1.03;;;10.60;99.90;;;;;;5078007;28;20465;-67
2023/03/10 09:04:09;;;;;;;1.70;1.27;;;10.70;99.90;;;;;;5074135;28;20445;-67
2023/03/10 09:06:36;;;;;;;1.33;1.23;;;10.70;99.90;;;;;;5091320;28;20456;-67
2023/03/10 09:09:06;;;;;;;3.80;1.60;;;10.60;99.90;;;;;;5088447;28;20445;-68
2023/03/10 09:11:34;;;;;;;3.43;1.60;;;10.60;99.90;;;;;;5079451;28;20532;-67
2023/03/10 09:14:02;;;;;;;5.33;1.73;;;10.70;99.90;;;;;;5093788;28;20453;-67
2023/03/10 09:16:30;;;;;;;3.20;2.10;;;10.70;99.90;;;;;;5081222;28;20519;-67
2023/03/10 09:18:59;;;;;;;2.70;1.40;;;10.70;99.90;;;;;;5075674;28;20814;-67
2023/03/10 09:21:27;;;;;;;2.73;1.80;;;10.60;99.90;;;;;;5079197;28;20457;-68
2023/03/10 09:23:54;;;;;;;8.90;2.80;;;10.60;99.90;;;;;;5085359;28;20545;-67
2023/03/10 09:26:21;;;;;;;4.20;1.60;;;10.70;99.90;;;;;;5091512;28;20550;-67
2023/03/10 09:28:49;;;;;;;4.73;2.03;;;11.00;99.90;;;;;;5074885;28;20547;-67
2023/03/10 09:31:19;;;;;;;2.20;1.37;;;11.10;99.90;;;;;;5077030;28;20455;-68
2023/03/10 09:33:46;;;;;;;2.87;2.20;;;11.20;99.90;;;;;;5087418;28;20565;-67
2023/03/10 09:36:15;;;;;;;2.20;2.00;;;11.40;99.90;;;;;;5090786;28;21020;-67
2023/03/10 09:38:42;;;;;;;5.40;2.40;;;11.50;99.90;;;;;;5081670;28;20801;-68
2023/03/10 09:41:38;;;;;;;6.57;1.67;;;11.60;99.90;;;;;;5075295;28;20458;-67
2023/03/10 09:44:21;;;;;;;3.87;1.63;;;11.60;99.90;;;;;;5072496;28;20493;-68
2023/03/10 09:46:57;;;;;;;3.73;1.87;;;11.60;99.90;;;;;;5080941;28;20474;-67
2023/03/10 09:49:32;;;;;;;5.00;2.23;;;11.80;99.90;;;;;;5077402;28;21467;-67
2023/03/10 09:52:14;;;;;;;1.93;1.73;;;12.00;99.90;;;;;;5077317;28;20470;-67
2023/03/10 09:54:51;;;;;;;5.50;2.33;;;12.20;99.90;;;;;;5083798;28;20472;-70
2023/03/10 09:57:21;;;;;;;5.50;1.67;;;12.40;99.90;;;;;;5086395;28;20536;-67
2023/03/10 09:59:52;;;;;;;3.70;2.13;;;12.40;99.90;;;;;;5078601;28;20449;-67
2023/03/10 10:02:23;;;;;;;2.13;1.60;;;12.20;99.90;;;;;;5075137;28;20552;-68
2023/03/10 10:04:55;;;;;;;6.83;1.80;;;12.20;99.90;;;;;;5088812;28;20445;-68
2023/03/10 10:07:28;;;;;;;8.53;1.70;;;12.20;99.90;;;;;;5103439;28;20557;-67
2023/03/10 10:10:03;;;;;;;2.87;2.00;;;12.20;99.90;;;;;;5084585;28;20449;-68
2023/03/10 10:12:30;;;;;;;2.70;1.70;;;12.40;99.90;;;;;;5084911;28;20871;-68
2023/03/10 10:14:59;;;;;;;1.50;1.40;;;12.90;99.90;;;;;;5083237;28;20561;-68
2023/03/10 10:17:43;;;;;;;2.90;1.37;;;13.10;99.90;;;;;;5093927;28;20466;-68
2023/03/10 10:20:20;;;;;;;6.57;1.93;;;13.50;99.90;;;;;;5087629;28;20445;-68
2023/03/10 10:22:49;;;;;;;7.50;3.30;;;13.50;99.90;;;;;;5087967;28;20556;-68
2023/03/10 10:25:19;;;;;;;2.50;1.93;;;13.30;99.90;;;;;;5099743;28;20432;-68
2023/03/10 10:27:51;;;;;;;4.40;1.67;;;13.60;99.90;;;;;;5109760;28;20485;-68
2023/03/10 10:30:36;;;;;;;2.60;1.47;;;13.80;99.90;;;;;;5083449;28;20464;-68
2023/03/10 10:33:05;;;;;;;1.80;1.67;;;13.80;99.90;;;;;;5096424;28;20459;-68
2023/03/10 10:35:35;;;;;;;2.80;1.70;;;13.70;99.90;;;;;;5088996;28;20482;-69
2023/03/10 10:38:06;;;;;;;3.93;2.07;;;13.50;99.90;;;;;;5075696;28;20767;-69
2023/03/10 10:40:46;;;;;;;1.93;1.20;;;13.80;99.90;;;;;;5082594;28;20453;-69
2023/03/10 10:43:17;;;;;;;3.10;1.87;;;13.90;99.90;;;;;;5087986;28;20442;-68
2023/03/10 10:45:45;;;;;;;1.37;1.10;;;14.10;99.90;;;;;;5088472;28;20437;-69
2023/03/10 10:48:34;;;;;;;4.47;2.00;;;14.00;99.90;;;;;;5096385;28;20445;-68
2023/03/10 10:51:01;;;;;;;2.13;1.93;;;14.00;99.90;;;;;;5086064;28;20481;-68
2023/03/10 10:53:33;;;;;;;4.37;2.43;;;13.70;99.90;;;;;;5077831;28;20461;-68
2023/03/10 10:56:03;;;;;;;2.47;2.27;;;13.60;99.90;;;;;;5081758;28;20482;-68
2023/03/10 10:58:32;;;;;;;5.10;1.87;;;13.70;99.90;;;;;;5085174;28;20497;-67
2023/03/10 11:01:02;;;;;;;1.70;1.60;;;13.60;99.90;;;;;;5085066;28;20946;-68
2023/03/10 11:03:32;;;;;;;2.23;1.53;;;13.50;99.90;;;;;;5086233;28;20450;-68
2023/03/10 11:05:59;;;;;;;1.93;1.30;;;13.50;99.90;;;;;;5085195;28;20462;-68
2023/03/10 11:08:36;;;;;;;6.30;1.73;;;13.50;99.90;;;;;;5078380;28;21205;-68
2023/03/10 11:11:16;;;;;;;6.73;1.40;;;13.40;99.90;;;;;;5088650;28;20445;-68
2023/03/10 11:13:58;;;;;;;2.13;1.90;;;13.30;99.90;;;;;;5092483;28;20449;-69
2023/03/10 11:16:31;;;;;;;5.53;2.17;;;13.30;99.90;;;;;;5079159;28;20504;-68
2023/03/10 11:19:05;;;;;;;6.03;2.00;;;13.30;99.90;;;;;;5086188;28;20873;-68
2023/03/10 11:21:36;;;;;;;5.93;1.70;;;13.30;99.90;;;;;;5093666;28;20447;-68
2023/03/10 11:24:14;;;;;;;3.97;2.10;;;13.30;99.90;;;;;;5089635;28;20545;-67
2023/03/10 11:26:50;;;;;;;5.90;1.77;;;13.40;99.90;;;;;;5085616;28;20474;-67
2023/03/10 11:29:29;;;;;;;2.53;1.90;;;13.50;99.90;;;;;;5094166;28;20422;-67
2023/03/10 11:32:04;;;;;;;5.00;2.50;;;13.60;99.90;;;;;;5095612;28;20434;-68
2023/03/10 11:34:35;;;;;;;2.50;1.83;;;13.60;99.90;;;;;;5085723;28;20473;-68
2023/03/10 11:37:13;;;;;;;2.10;1.60;;;13.60;99.90;;;;;;5075448;28;20502;-68
2023/03/10 11:39:51;;;;;;;3.47;1.73;;;13.70;99.90;;;;;;5080374;28;20534;-68
2023/03/10 11:42:27;;;;;;;2.23;1.60;;;13.70;99.90;;;;;;5084840;28;20796;-67
2023/03/10 11:45:15;;;;;;;6.53;1.67;;;13.90;99.90;;;;;;5078823;28;20796;-67
2023/03/10 11:47:52;;;;;;;3.57;1.30;;;14.00;99.90;;;;;;5081216;28;20489;-68
2023/03/10 11:50:28;;;;;;;1.87;1.20;;;14.20;99.90;;;;;;5087411;28;20450;-68
2023/03/10 11:53:00;;;;;;;2.17;1.33;;;14.20;99.90;;;;;;5083575;28;20478;-68
2023/03/10 11:55:31;;;;;;;4.13;2.13;;;14.20;99.90;;;;;;5090059;28;21068;-68
2023/03/10 11:58:03;;;;;;;1.87;1.70;;;14.40;99.90;;;;;;5093276;28;20527;-68
2023/03/10 12:00:36;;;;;;;3.53;1.53;;;14.60;99.90;;;;;;5088182;28;20474;-68
2023/03/10 12:03:14;;;;;;;6.57;1.97;;;14.90;99.90;;;;;;5092106;28;20442;-69
2023/03/10 12:05:48;;;;;;;1.57;1.10;;;15.10;99.90;;;;;;5093642;28;20438;-68
2023/03/10 12:08:17;;;;;;;2.20;1.43;;;15.00;99.90;;;;;;5091796;28;20461;-68
2023/03/10 12:10:45;;;;;;;2.23;1.27;;;15.00;99.90;;;;;;5085643;28;20552;-68
2023/03/10 12:13:22;;;;;;;7.80;2.43;;;15.00;99.90;;;;;;5088270;28;20457;-68
2023/03/10 12:15:50;;;;;;;1.83;1.40;;;14.70;99.90;;;;;;5085062;28;20838;-69
2023/03/10 12:18:17;;;;;;;3.63;1.20;;;14.60;99.90;;;;;;5083986;28;20517;-68
2023/03/10 12:20:44;;;;;;;2.60;1.87;;;14.20;99.90;;;;;;5088949;28;20449;-68
2023/03/10 12:23:37;;;;;;;4.20;2.20;;;13.80;99.90;;;;;;5093683;28;20458;-68
2023/03/10 12:26:05;;;;;;;1.43;1.20;;;13.60;99.90;;;;;;5082565;28;20562;-67
2023/03/10 12:28:33;;;;;;;3.67;1.73;;;13.20;99.90;;;;;;5087794;28;20443;-68
2023/03/10 12:31:01;;;;;;;1.90;1.33;;;12.70;99.90;;;;;;5090085;28;20860;-68
2023/03/10 12:34:13;;;;;;;1.77;1.43;;;12.10;99.90;;;;;;5088131;28;20437;-69
2023/03/10 12:36:43;;;;;;;3.63;1.77;;;11.70;99.90;;;;;;5078969;28;20487;-68
2023/03/10 12:39:37;;;;;;;3.20;1.50;;;11.40;99.90;;;;;;5094207;28;20446;-67
2023/03/10 12:42:28;;;;;;;6.00;1.77;;;11.50;99.90;;;;;;5094077;28;20533;-68
2023/03/10 12:45:05;;;;;;;6.13;1.97;;;11.50;99.90;;;;;;5083290;28;20461;-68
2023/03/10 12:47:45;;;;;;;1.30;0.97;;;11.40;99.90;;;;;;5088148;28;21047;-69
2023/03/10 12:50:31;;;;;;;2.03;1.83;;;11.40;99.90;;;;;;5078645;28;20458;-69
2023/03/10 12:53:07;;;;;;;6.53;1.10;;;11.40;99.90;;;;;;5084357;28;20488;-69
2023/03/10 12:55:34;;;;;;;2.03;1.57;;;11.40;99.90;;;;;;5095315;28;20469;-68
2023/03/10 12:58:11;;;;;;;1.77;1.20;;;11.40;99.90;;;;;;5082822;28;20562;-68
2023/03/10 13:00:47;;;;;;;1.30;0.87;;;11.40;99.90;;;;;;5084882;28;20536;-68